Time;durP1;ratioP1;P1;durP2;ratioP2;P2;SDS_P1;SDS_P2;PMS_P1;PMS_P2;Temp;Humidity;BMP_temperature;BMP_pressure;BME280_temperature;BME280_humidity;BME280_pressure;Samples;Min_cycle;Max_cycle;Signal;HPM_P1;HPM_P2
2023/07/10 00:01:26;;;;;;;5.65;4.30;;;23.60;80.20;;;;;;4915894;29;20040;-67
2023/07/10 00:03:52;;;;;;;5.00;4.35;;;23.60;81.10;;;;;;4914072;29;20051;-67
2023/07/10 00:06:18;;;;;;;5.97;4.50;;;23.50;80.90;;;;;;4915826;29;20155;-67
2023/07/10 00:08:44;;;;;;;4.75;3.65;;;23.50;81.00;;;;;;4911360;29;20122;-67
2023/07/10 00:11:19;;;;;;;5.43;4.07;;;23.40;81.20;;;;;;4907596;29;20039;-67
2023/07/10 00:13:45;;;;;;;5.80;4.32;;;23.40;81.50;;;;;;4910995;29;20031;-67
2023/07/10 00:16:14;;;;;;;8.13;4.50;;;23.30;81.80;;;;;;4904262;29;20465;-67
2023/07/10 00:18:46;;;;;;;7.75;4.60;;;23.30;82.00;;;;;;4905588;29;20031;-67
2023/07/10 00:21:12;;;;;;;6.60;5.18;;;23.30;82.50;;;;;;4906070;29;20479;-67
2023/07/10 00:23:37;;;;;;;5.93;4.57;;;23.30;82.30;;;;;;4906927;29;20028;-67
2023/07/10 00:26:23;;;;;;;7.70;4.85;;;23.30;82.20;;;;;;4901806;29;20160;-67
2023/07/10 00:28:54;;;;;;;7.63;4.93;;;23.30;82.30;;;;;;4905174;29;20039;-67
2023/07/10 00:31:20;;;;;;;9.93;5.47;;;23.40;82.60;;;;;;4902333;29;20032;-67
2023/07/10 00:33:49;;;;;;;12.25;5.97;;;23.50;81.60;;;;;;4900614;29;20064;-67
2023/07/10 00:36:27;;;;;;;8.35;5.10;;;23.60;81.40;;;;;;4905999;29;20537;-67
2023/07/10 00:38:52;;;;;;;9.57;4.70;;;23.70;81.60;;;;;;4899398;29;20035;-67
2023/07/10 00:41:18;;;;;;;6.75;4.90;;;23.70;81.30;;;;;;4912139;29;20028;-67
2023/07/10 00:43:47;;;;;;;7.43;4.53;;;23.80;81.30;;;;;;4903849;29;20843;-67
2023/07/10 00:46:31;;;;;;;7.80;5.03;;;23.70;81.30;;;;;;4903890;29;20107;-67
2023/07/10 00:49:12;;;;;;;9.27;4.93;;;23.70;81.40;;;;;;4906206;29;20083;-68
2023/07/10 00:51:44;;;;;;;7.55;4.65;;;23.60;81.70;;;;;;4906551;29;20111;-68
2023/07/10 00:54:36;;;;;;;7.78;4.75;;;23.60;81.60;;;;;;4902447;29;20040;-68
2023/07/10 00:57:33;;;;;;;7.93;4.75;;;23.60;81.80;;;;;;4910746;29;20039;-67
2023/07/10 01:00:04;;;;;;;6.93;4.93;;;23.60;81.80;;;;;;4904634;29;20051;-68
2023/07/10 01:02:30;;;;;;;7.43;4.65;;;23.60;81.70;;;;;;4904792;29;20028;-67
2023/07/10 01:05:04;;;;;;;6.78;4.05;;;23.60;81.70;;;;;;4909626;29;20036;-68
2023/07/10 01:07:38;;;;;;;7.20;4.85;;;23.60;81.40;;;;;;4911240;29;20024;-67
2023/07/10 01:10:10;;;;;;;10.13;5.07;;;23.60;81.50;;;;;;4907662;29;20044;-67
2023/07/10 01:12:37;;;;;;;5.70;4.00;;;23.60;81.50;;;;;;4911327;29;20056;-68
2023/07/10 01:15:04;;;;;;;4.95;4.20;;;23.50;81.60;;;;;;4911866;29;20465;-68
2023/07/10 01:17:33;;;;;;;5.45;4.30;;;23.50;81.80;;;;;;4910936;29;20036;-68
2023/07/10 01:20:21;;;;;;;6.37;4.43;;;23.50;81.90;;;;;;4909122;29;20031;-67
2023/07/10 01:22:46;;;;;;;5.00;4.13;;;23.50;82.00;;;;;;4914875;29;20292;-67
2023/07/10 01:25:14;;;;;;;8.07;4.93;;;23.50;82.30;;;;;;4911748;29;20032;-67
2023/07/10 01:27:43;;;;;;;5.40;4.47;;;23.50;82.50;;;;;;4909077;29;20033;-67
2023/07/10 01:30:26;;;;;;;7.25;4.18;;;23.50;82.50;;;;;;4908214;29;20036;-67
2023/07/10 01:32:54;;;;;;;4.57;3.90;;;23.50;82.60;;;;;;4910192;29;20036;-67
2023/07/10 01:35:21;;;;;;;5.07;4.07;;;23.40;82.60;;;;;;4916045;29;20047;-68
2023/07/10 01:37:46;;;;;;;7.28;4.75;;;23.40;82.90;;;;;;4916980;29;20039;-66
2023/07/10 01:40:19;;;;;;;6.80;4.55;;;23.30;83.20;;;;;;4915885;29;20024;-67
2023/07/10 01:42:47;;;;;;;5.75;4.63;;;23.20;83.60;;;;;;4909202;29;20041;-67
2023/07/10 01:45:19;;;;;;;5.32;4.00;;;23.20;83.70;;;;;;4911495;29;20044;-66
2023/07/10 01:47:44;;;;;;;7.78;4.00;;;23.20;84.00;;;;;;4911166;29;20068;-67
2023/07/10 01:50:10;;;;;;;6.07;4.65;;;23.10;84.30;;;;;;4908127;29;20040;-67
2023/07/10 01:52:36;;;;;;;7.43;4.47;;;23.10;84.50;;;;;;4906982;29;20506;-67
2023/07/10 01:55:02;;;;;;;9.90;5.38;;;23.00;84.80;;;;;;4906550;29;20454;-66
2023/07/10 01:57:27;;;;;;;6.85;4.63;;;23.10;85.10;;;;;;4911832;29;20063;-66
2023/07/10 01:59:56;;;;;;;8.50;4.55;;;23.10;85.70;;;;;;4905505;29;20059;-67
2023/07/10 02:02:22;;;;;;;5.03;3.95;;;23.10;86.00;;;;;;4904357;29;20112;-67
2023/07/10 02:04:47;;;;;;;6.75;4.78;;;23.20;86.20;;;;;;4905945;29;20122;-67
2023/07/10 02:07:13;;;;;;;5.88;4.57;;;23.20;86.40;;;;;;4905971;29;20064;-66
2023/07/10 02:09:39;;;;;;;7.25;4.88;;;23.20;86.70;;;;;;4906610;29;20378;-67
2023/07/10 02:12:08;;;;;;;5.68;4.38;;;23.20;87.10;;;;;;4908969;29;20479;-67
2023/07/10 02:14:33;;;;;;;8.05;4.82;;;23.30;87.30;;;;;;4907445;29;20036;-67
2023/07/10 02:16:59;;;;;;;6.70;4.80;;;23.20;87.80;;;;;;4909044;29;20104;-67
2023/07/10 02:19:24;;;;;;;7.07;4.97;;;23.30;88.20;;;;;;4909431;29;20024;-67
2023/07/10 02:21:53;;;;;;;7.78;4.60;;;23.30;88.50;;;;;;4910438;29;20660;-67
2023/07/10 02:24:18;;;;;;;7.88;4.88;;;23.30;88.70;;;;;;4908351;29;20087;-68
2023/07/10 02:26:44;;;;;;;6.00;4.72;;;23.30;89.20;;;;;;4904014;29;20036;-67
2023/07/10 02:29:12;;;;;;;6.85;5.00;;;23.30;89.30;;;;;;4912695;29;20039;-67
2023/07/10 02:31:38;;;;;;;5.20;4.65;;;23.40;89.30;;;;;;4913107;29;20028;-68
2023/07/10 02:34:04;;;;;;;6.50;5.47;;;23.50;89.50;;;;;;4907234;29;20067;-67
2023/07/10 02:36:29;;;;;;;10.63;5.40;;;23.50;89.50;;;;;;4908940;29;20043;-67
2023/07/10 02:38:56;;;;;;;7.88;4.95;;;23.50;89.90;;;;;;4909742;29;20043;-67
2023/07/10 02:41:22;;;;;;;7.18;5.10;;;23.50;90.10;;;;;;4903318;29;20024;-67
2023/07/10 02:43:47;;;;;;;16.58;5.65;;;23.60;90.20;;;;;;4904108;29;20037;-67
2023/07/10 02:46:13;;;;;;;7.82;4.93;;;23.60;90.40;;;;;;4904989;29;20043;-67
2023/07/10 02:48:38;;;;;;;9.80;4.93;;;23.60;90.40;;;;;;4902465;29;20028;-66
2023/07/10 02:51:04;;;;;;;10.48;5.22;;;23.80;90.40;;;;;;4912978;29;20032;-67
2023/07/10 02:53:30;;;;;;;8.68;4.90;;;23.80;90.50;;;;;;4906349;29;20063;-67
2023/07/10 02:55:56;;;;;;;10.23;5.65;;;23.80;90.50;;;;;;4905847;29;20040;-67
2023/07/10 02:58:21;;;;;;;7.10;5.10;;;23.90;90.50;;;;;;4905879;29;20048;-67
2023/07/10 03:00:58;;;;;;;13.02;5.53;;;23.90;90.60;;;;;;4903229;29;20027;-67
2023/07/10 03:03:25;;;;;;;8.90;5.72;;;24.00;90.80;;;;;;4906748;29;20032;-67
2023/07/10 03:05:56;;;;;;;13.10;5.60;;;24.00;91.30;;;;;;4903140;29;20039;-68
2023/07/10 03:08:22;;;;;;;12.15;6.00;;;24.00;91.50;;;;;;4905689;29;20145;-67
2023/07/10 03:10:47;;;;;;;8.15;5.68;;;24.00;91.80;;;;;;4904716;29;20103;-67
2023/07/10 03:13:13;;;;;;;9.60;5.30;;;23.90;92.20;;;;;;4904507;29;20660;-67
2023/07/10 03:15:39;;;;;;;6.50;5.30;;;23.90;92.20;;;;;;4903930;29;20051;-67
2023/07/10 03:18:04;;;;;;;13.63;5.28;;;23.90;92.40;;;;;;4904712;29;21541;-67
2023/07/10 03:20:35;;;;;;;9.70;4.88;;;23.90;92.60;;;;;;4905820;29;20051;-67
2023/07/10 03:23:00;;;;;;;7.45;5.10;;;23.90;92.80;;;;;;4905584;29;20086;-67
2023/07/10 03:25:26;;;;;;;12.48;5.10;;;23.90;92.90;;;;;;4904510;29;20115;-67
2023/07/10 03:27:52;;;;;;;8.85;5.30;;;23.90;93.00;;;;;;4905751;29;20037;-67
2023/07/10 03:30:17;;;;;;;8.05;4.70;;;23.90;93.10;;;;;;4903855;29;20387;-67
2023/07/10 03:32:43;;;;;;;11.02;5.82;;;23.90;92.90;;;;;;4908318;29;20059;-68
2023/07/10 03:35:08;;;;;;;7.20;5.13;;;23.90;93.00;;;;;;4905172;29;20031;-68
2023/07/10 03:37:34;;;;;;;9.32;5.25;;;24.00;93.00;;;;;;4905328;29;20040;-67
2023/07/10 03:39:59;;;;;;;6.90;5.05;;;24.00;93.20;;;;;;4903040;29;20110;-67
2023/07/10 03:42:25;;;;;;;7.85;4.78;;;24.00;93.30;;;;;;4905053;29;20508;-66
2023/07/10 03:44:50;;;;;;;9.45;5.03;;;24.00;93.30;;;;;;4902039;29;20195;-67
2023/07/10 03:47:16;;;;;;;9.15;5.68;;;24.00;93.30;;;;;;4903773;29;20064;-67
2023/07/10 03:49:44;;;;;;;9.73;5.55;;;24.00;93.30;;;;;;4902089;29;20028;-67
2023/07/10 03:52:10;;;;;;;10.95;5.50;;;24.10;93.40;;;;;;4905203;29;20410;-67
2023/07/10 03:54:36;;;;;;;10.70;5.72;;;24.10;93.40;;;;;;4903736;29;20028;-67
2023/07/10 03:57:01;;;;;;;10.45;6.13;;;24.10;93.50;;;;;;4906822;29;20058;-68
2023/07/10 03:59:29;;;;;;;8.13;5.88;;;24.10;93.70;;;;;;4902858;29;20036;-67
2023/07/10 04:01:55;;;;;;;9.13;5.57;;;24.10;93.80;;;;;;4905121;29;20029;-67
2023/07/10 04:04:23;;;;;;;11.63;5.55;;;24.10;93.90;;;;;;4909403;29;20076;-68
2023/07/10 04:06:48;;;;;;;10.02;5.93;;;24.10;94.20;;;;;;4903860;29;20035;-67
2023/07/10 04:09:14;;;;;;;8.38;5.20;;;24.10;94.00;;;;;;4903363;29;20402;-67
2023/07/10 04:11:40;;;;;;;7.93;5.35;;;24.20;94.00;;;;;;4904756;29;20036;-67
2023/07/10 04:14:08;;;;;;;8.57;5.38;;;24.10;94.00;;;;;;4907664;29;20489;-67
2023/07/10 04:16:34;;;;;;;9.10;4.95;;;24.20;94.00;;;;;;4904536;29;20075;-67
2023/07/10 04:18:59;;;;;;;9.93;5.43;;;24.20;94.00;;;;;;4908272;29;20080;-67
2023/07/10 04:21:28;;;;;;;10.00;5.13;;;24.20;94.00;;;;;;4906146;29;20036;-67
2023/07/10 04:23:57;;;;;;;12.60;5.53;;;24.30;94.00;;;;;;4904597;29;20024;-67
2023/07/10 04:26:26;;;;;;;6.25;4.68;;;24.40;94.00;;;;;;4894574;29;20389;-67
2023/07/10 04:28:54;;;;;;;11.55;5.53;;;24.40;93.90;;;;;;4904510;29;20039;-67
2023/07/10 04:31:23;;;;;;;10.88;5.20;;;24.40;93.90;;;;;;4905697;29;20043;-68
2023/07/10 04:33:50;;;;;;;8.32;4.47;;;24.50;94.00;;;;;;4901089;29;20082;-67
2023/07/10 04:36:18;;;;;;;9.15;5.13;;;24.50;93.90;;;;;;4905902;29;20088;-67
2023/07/10 04:38:43;;;;;;;6.28;5.20;;;24.50;93.90;;;;;;4906318;29;21287;-67
2023/07/10 04:41:12;;;;;;;9.88;5.13;;;24.50;93.90;;;;;;4899897;29;20051;-67
2023/07/10 04:43:38;;;;;;;9.65;5.07;;;24.60;93.80;;;;;;4903814;29;20059;-68
2023/07/10 04:46:07;;;;;;;10.70;6.10;;;24.60;93.90;;;;;;4909046;29;20044;-68
2023/07/10 04:48:33;;;;;;;12.15;5.38;;;24.60;94.00;;;;;;4905526;29;20482;-67
2023/07/10 04:51:03;;;;;;;12.45;5.95;;;24.60;94.40;;;;;;4903352;29;20043;-67
2023/07/10 04:53:33;;;;;;;8.68;5.47;;;24.70;94.20;;;;;;4903516;29;20039;-68
2023/07/10 04:56:01;;;;;;;13.30;6.15;;;24.60;94.30;;;;;;4908290;29;20044;-68
2023/07/10 04:58:28;;;;;;;9.65;5.97;;;24.40;94.50;;;;;;4910316;29;20036;-68
2023/07/10 05:00:56;;;;;;;9.30;5.72;;;24.30;94.70;;;;;;4905397;29;20167;-67
2023/07/10 05:03:23;;;;;;;7.47;5.00;;;24.10;95.00;;;;;;4906344;29;20414;-68
2023/07/10 05:05:56;;;;;;;8.55;5.45;;;24.10;95.10;;;;;;4901727;29;20068;-68
2023/07/10 05:08:26;;;;;;;11.73;5.80;;;24.00;95.30;;;;;;4905665;29;20020;-67
2023/07/10 05:10:54;;;;;;;;;;;24.00;95.50;;;;;;4900161;29;20032;-68
2023/07/10 05:13:21;;;;;;;8.48;5.60;;;24.00;95.50;;;;;;4910340;29;19918;-68
2023/07/10 05:15:48;;;;;;;10.05;5.75;;;24.10;95.40;;;;;;4904038;29;20090;-67
2023/07/10 05:18:17;;;;;;;9.52;5.15;;;24.20;95.30;;;;;;4904160;29;20032;-68
2023/07/10 05:20:44;;;;;;;10.60;5.43;;;24.40;95.10;;;;;;4887361;29;20612;-68
2023/07/10 05:23:14;;;;;;;13.80;5.55;;;24.60;94.90;;;;;;4903769;29;20036;-68
2023/07/10 05:25:40;;;;;;;10.63;5.38;;;24.80;94.70;;;;;;4903469;29;20111;-68
2023/07/10 05:28:06;;;;;;;6.13;5.05;;;24.80;94.60;;;;;;4905732;29;20517;-67
2023/07/10 05:30:34;;;;;;;8.45;5.30;;;24.90;94.40;;;;;;4901905;29;20032;-67
2023/07/10 05:33:02;;;;;;;8.45;5.00;;;25.10;94.30;;;;;;4903908;29;20052;-67
2023/07/10 05:35:28;;;;;;;11.63;6.38;;;25.30;94.00;;;;;;4899579;29;20037;-68
2023/07/10 05:37:54;;;;;;;10.27;6.15;;;25.50;93.60;;;;;;4905816;29;20036;-68
2023/07/10 05:40:19;;;;;;;12.23;5.80;;;25.60;93.60;;;;;;4914178;29;20036;-68
2023/07/10 05:42:45;;;;;;;10.35;5.40;;;25.60;93.30;;;;;;4913403;29;20039;-65
2023/07/10 05:45:11;;;;;;;9.52;5.60;;;25.70;93.20;;;;;;4914006;29;20047;-68
2023/07/10 05:47:36;;;;;;;11.57;5.60;;;25.80;93.00;;;;;;4910493;29;20039;-66
2023/07/10 05:50:02;;;;;;;11.18;5.35;;;25.80;92.90;;;;;;4903311;29;20038;-67
2023/07/10 05:52:27;;;;;;;11.32;5.88;;;25.90;92.80;;;;;;4910442;29;20449;-66
2023/07/10 05:54:53;;;;;;;15.88;6.35;;;25.90;92.50;;;;;;4907252;29;20115;-66
2023/07/10 05:57:19;;;;;;;8.02;5.38;;;26.10;92.40;;;;;;4904372;29;20052;-66
2023/07/10 05:59:44;;;;;;;15.60;5.93;;;26.10;92.40;;;;;;4902403;29;20046;-66
2023/07/10 06:02:11;;;;;;;9.63;5.63;;;26.20;92.10;;;;;;4905481;29;20029;-67
2023/07/10 06:04:38;;;;;;;9.38;4.88;;;26.30;92.00;;;;;;4911456;29;20036;-66
2023/07/10 06:07:04;;;;;;;8.80;5.93;;;26.40;91.90;;;;;;4917519;29;20032;-66
2023/07/10 06:09:29;;;;;;;7.70;5.00;;;26.50;91.70;;;;;;4916574;29;20064;-66
2023/07/10 06:11:55;;;;;;;11.40;5.03;;;26.60;91.30;;;;;;4916653;29;20064;-66
2023/07/10 06:14:20;;;;;;;9.13;5.95;;;26.80;91.10;;;;;;4914615;29;20087;-66
2023/07/10 06:16:46;;;;;;;12.38;5.60;;;26.90;90.80;;;;;;4907277;29;20048;-64
2023/07/10 06:19:11;;;;;;;10.88;5.30;;;27.00;90.50;;;;;;4916649;29;20040;-64
2023/07/10 06:21:37;;;;;;;8.07;4.97;;;27.20;90.20;;;;;;4915948;29;20024;-65
2023/07/10 06:24:04;;;;;;;11.30;5.60;;;27.40;89.60;;;;;;4916213;29;20044;-64
2023/07/10 06:26:30;;;;;;;11.32;4.97;;;27.70;89.00;;;;;;4913090;29;20039;-66
2023/07/10 06:28:55;;;;;;;9.38;4.78;;;27.90;88.40;;;;;;4914918;29;20040;-66
2023/07/10 06:31:21;;;;;;;12.10;5.47;;;28.10;87.90;;;;;;4924330;29;20047;-65
2023/07/10 06:33:47;;;;;;;10.90;5.75;;;28.20;87.40;;;;;;4912627;29;20072;-65
2023/07/10 06:36:12;;;;;;;7.68;4.95;;;28.20;87.40;;;;;;4915472;29;20607;-64
2023/07/10 06:38:38;;;;;;;8.65;5.00;;;28.20;87.40;;;;;;4914752;29;20465;-66
2023/07/10 06:41:05;;;;;;;9.50;4.90;;;28.10;87.30;;;;;;4914717;29;20481;-65
2023/07/10 06:43:31;;;;;;;9.38;5.47;;;28.00;87.60;;;;;;4914552;29;20028;-67
2023/07/10 06:45:57;;;;;;;12.13;5.60;;;28.00;87.80;;;;;;4914402;29;20024;-65
2023/07/10 06:48:22;;;;;;;9.90;5.07;;;28.10;88.70;;;;;;4915619;29;20034;-66
2023/07/10 06:50:56;;;;;;;8.07;5.28;;;28.20;88.10;;;;;;4913847;29;20043;-64
2023/07/10 06:53:23;;;;;;;8.93;5.70;;;28.40;87.90;;;;;;4914956;29;20024;-65
2023/07/10 06:55:53;;;;;;;7.20;4.75;;;28.60;87.60;;;;;;4914216;29;20123;-65
2023/07/10 06:58:19;;;;;;;5.68;4.45;;;28.80;87.00;;;;;;4914702;29;20033;-65
2023/07/10 07:00:47;;;;;;;9.20;5.10;;;28.90;86.90;;;;;;4914144;29;20035;-66
2023/07/10 07:03:13;;;;;;;6.78;4.78;;;29.10;86.90;;;;;;4914134;29;20040;-66
2023/07/10 07:05:42;;;;;;;6.10;4.57;;;29.20;86.20;;;;;;4913896;29;20039;-65
2023/07/10 07:08:12;;;;;;;9.55;4.20;;;29.20;86.20;;;;;;4914435;29;20036;-64
2023/07/10 07:10:41;;;;;;;8.65;4.72;;;29.40;85.40;;;;;;4913783;29;20111;-65
2023/07/10 07:13:08;;;;;;;5.10;4.53;;;29.40;85.20;;;;;;4914485;29;20038;-66
2023/07/10 07:15:33;;;;;;;6.88;4.45;;;29.40;85.30;;;;;;4913361;29;20091;-65
2023/07/10 07:17:59;;;;;;;7.60;4.43;;;29.40;85.10;;;;;;4914827;29;20032;-65
2023/07/10 07:20:24;;;;;;;6.72;4.30;;;29.50;85.40;;;;;;4914999;29;20124;-65
2023/07/10 07:22:50;;;;;;;8.05;4.70;;;29.50;84.90;;;;;;4914492;29;20039;-65
2023/07/10 07:25:16;;;;;;;8.82;4.57;;;29.50;84.60;;;;;;4914244;29;20124;-65
2023/07/10 07:27:44;;;;;;;8.38;4.57;;;29.50;84.70;;;;;;4913427;29;20051;-66
2023/07/10 07:30:10;;;;;;;7.03;4.60;;;29.50;84.70;;;;;;4914149;29;20461;-65
2023/07/10 07:32:36;;;;;;;10.23;4.95;;;29.40;84.60;;;;;;4913450;29;20028;-66
2023/07/10 07:35:01;;;;;;;10.25;4.93;;;29.30;84.70;;;;;;4894432;29;20391;-65
2023/07/10 07:37:27;;;;;;;8.65;4.50;;;29.10;85.10;;;;;;4893998;29;20516;-65
2023/07/10 07:39:54;;;;;;;9.98;4.70;;;29.00;85.60;;;;;;4893789;29;20026;-65
2023/07/10 07:42:20;;;;;;;8.57;4.43;;;28.80;85.80;;;;;;4895634;29;20021;-65
2023/07/10 07:44:48;;;;;;;8.15;4.60;;;28.90;86.00;;;;;;4894277;29;20762;-65
2023/07/10 07:47:15;;;;;;;7.18;4.50;;;29.00;86.20;;;;;;4887583;29;20048;-65
2023/07/10 07:49:40;;;;;;;11.48;4.90;;;29.10;85.90;;;;;;4894963;29;20024;-65
2023/07/10 07:52:06;;;;;;;5.03;4.40;;;29.20;85.10;;;;;;4894722;29;20036;-65
2023/07/10 07:54:32;;;;;;;9.70;4.45;;;29.10;85.90;;;;;;4894607;29;20517;-65
2023/07/10 07:56:58;;;;;;;8.38;4.38;;;29.20;86.00;;;;;;4894496;29;20088;-64
2023/07/10 07:59:23;;;;;;;9.57;4.78;;;29.20;85.80;;;;;;4894951;29;20060;-64
2023/07/10 08:01:52;;;;;;;7.00;4.00;;;29.40;85.50;;;;;;4894492;29;20206;-64
2023/07/10 08:04:22;;;;;;;6.68;4.25;;;29.60;85.10;;;;;;4894636;29;20021;-66
2023/07/10 08:06:50;;;;;;;7.40;4.32;;;29.80;84.40;;;;;;4893776;29;20040;-65
2023/07/10 08:09:16;;;;;;;6.53;4.57;;;29.90;84.30;;;;;;4894871;29;20051;-65
2023/07/10 08:11:45;;;;;;;8.63;4.28;;;30.00;84.30;;;;;;4894456;29;20108;-65
2023/07/10 08:14:10;;;;;;;8.55;4.82;;;30.10;84.10;;;;;;4894911;29;20099;-65
2023/07/10 08:16:36;;;;;;;8.55;4.70;;;30.30;83.60;;;;;;4893786;29;20488;-65
2023/07/10 08:19:01;;;;;;;7.85;4.47;;;30.30;83.60;;;;;;4894233;29;20119;-65
2023/07/10 08:21:27;;;;;;;8.45;4.18;;;30.30;82.90;;;;;;4890478;29;20055;-65
2023/07/10 08:23:53;;;;;;;11.02;5.15;;;30.30;83.50;;;;;;4894031;29;20229;-65
2023/07/10 08:26:18;;;;;;;9.55;4.30;;;30.30;83.50;;;;;;4894626;29;20088;-64
2023/07/10 08:28:44;;;;;;;8.52;5.20;;;30.20;83.40;;;;;;4893394;29;20036;-64
2023/07/10 08:31:12;;;;;;;5.90;4.30;;;30.10;83.60;;;;;;4895248;29;20493;-65
2023/07/10 08:33:41;;;;;;;10.43;4.70;;;30.00;83.80;;;;;;4901642;29;20048;-65
2023/07/10 08:36:07;;;;;;;6.45;4.68;;;30.10;84.10;;;;;;4913269;29;20553;-65
2023/07/10 08:38:35;;;;;;;13.52;4.65;;;30.20;84.10;;;;;;4913171;29;20032;-65
2023/07/10 08:41:12;;;;;;;8.40;5.18;;;30.30;84.00;;;;;;4912261;29;20059;-64
2023/07/10 08:43:40;;;;;;;9.60;4.75;;;30.40;84.30;;;;;;4912744;29;20474;-65
2023/07/10 08:46:10;;;;;;;7.50;5.10;;;30.40;84.20;;;;;;4913553;29;20063;-64
2023/07/10 08:48:54;;;;;;;;;;;30.30;84.50;;;;;;4912709;29;20374;-66
2023/07/10 08:51:19;;;;;;;9.98;4.63;;;30.40;84.80;;;;;;4911572;29;19911;-65
2023/07/10 08:54:04;;;;;;;9.48;4.60;;;30.60;83.80;;;;;;4912113;29;20028;-65
2023/07/10 08:56:50;;;;;;;8.23;4.40;;;30.60;83.70;;;;;;4912793;29;20478;-65
2023/07/10 08:59:22;;;;;;;7.38;4.70;;;30.70;84.10;;;;;;4913180;29;20032;-65
2023/07/10 09:01:48;;;;;;;7.38;4.38;;;30.60;83.90;;;;;;4913359;29;20092;-65
2023/07/10 09:04:16;;;;;;;6.88;4.20;;;30.60;84.50;;;;;;4912969;29;20036;-64
2023/07/10 09:06:50;;;;;;;8.00;5.22;;;30.70;83.90;;;;;;4912459;29;20415;-69
2023/07/10 09:09:35;;;;;;;11.85;4.95;;;30.80;83.80;;;;;;4910286;29;20028;-65
2023/07/10 09:12:10;;;;;;;8.45;4.28;;;30.90;83.80;;;;;;4908837;29;20040;-65
2023/07/10 09:14:48;;;;;;;6.22;4.60;;;31.00;84.60;;;;;;4911715;29;20142;-65
2023/07/10 09:17:30;;;;;;;9.38;4.75;;;31.10;84.30;;;;;;4912462;29;20501;-65
2023/07/10 09:19:59;;;;;;;8.23;4.45;;;31.30;84.40;;;;;;4905433;29;20096;-66
2023/07/10 09:22:25;;;;;;;6.47;4.38;;;31.40;84.30;;;;;;4905730;29;20051;-66
2023/07/10 09:24:51;;;;;;;11.50;4.53;;;31.40;84.10;;;;;;4896004;29;20044;-66
2023/07/10 09:27:16;;;;;;;7.68;4.80;;;31.50;83.80;;;;;;4916339;29;20462;-65
2023/07/10 09:29:46;;;;;;;11.80;4.50;;;31.50;83.90;;;;;;4915583;29;20076;-65
2023/07/10 09:32:18;;;;;;;7.93;4.90;;;31.40;84.10;;;;;;4912764;29;20374;-65
2023/07/10 09:34:49;;;;;;;9.27;4.78;;;31.30;84.50;;;;;;4898098;29;20135;-67
2023/07/10 09:37:21;;;;;;;7.00;5.15;;;31.10;84.50;;;;;;4916218;29;20032;-65
2023/07/10 09:39:46;;;;;;;7.57;5.22;;;30.90;85.30;;;;;;4915799;29;20056;-65
2023/07/10 09:42:17;;;;;;;9.90;4.97;;;30.80;85.50;;;;;;4916529;29;20064;-65
2023/07/10 09:44:57;;;;;;;10.82;5.45;;;30.60;86.60;;;;;;4916560;29;20032;-65
2023/07/10 09:47:23;;;;;;;8.00;5.28;;;30.50;86.00;;;;;;4917727;29;20050;-65
2023/07/10 09:49:54;;;;;;;8.57;5.18;;;30.50;86.10;;;;;;4915096;29;20693;-66
2023/07/10 09:52:24;;;;;;;14.32;5.60;;;30.70;86.60;;;;;;4916415;29;20043;-66
2023/07/10 09:55:01;;;;;;;6.55;5.00;;;30.80;85.90;;;;;;4914093;29;20222;-65
2023/07/10 09:57:27;;;;;;;5.95;4.57;;;30.80;86.00;;;;;;4916435;29;20032;-65
2023/07/10 09:59:55;;;;;;;9.75;5.60;;;31.00;85.30;;;;;;4914141;29;20032;-65
2023/07/10 10:02:34;;;;;;;7.82;5.10;;;31.10;84.80;;;;;;4916309;29;20083;-66
2023/07/10 10:05:16;;;;;;;8.15;5.32;;;31.30;84.00;;;;;;4915751;29;20036;-65
2023/07/10 10:07:45;;;;;;;6.50;5.13;;;31.30;83.90;;;;;;4915181;29;20032;-64
2023/07/10 10:10:23;;;;;;;11.75;5.95;;;31.30;84.00;;;;;;4915855;29;20029;-65
2023/07/10 10:13:14;;;;;;;9.30;5.25;;;31.40;84.20;;;;;;4915314;29;20039;-66
2023/07/10 10:16:03;;;;;;;11.10;4.95;;;31.20;83.80;;;;;;4915085;29;20406;-65
2023/07/10 10:18:43;;;;;;;7.50;5.47;;;31.10;84.10;;;;;;4914681;29;20529;-65
2023/07/10 10:21:12;;;;;;;9.50;5.47;;;31.20;84.00;;;;;;4915741;29;20032;-65
2023/07/10 10:23:39;;;;;;;7.68;5.10;;;31.40;83.50;;;;;;4911852;29;20460;-66
2023/07/10 10:26:42;;;;;;;5.53;4.22;;;31.60;83.10;;;;;;4910754;29;20056;-66
2023/07/10 10:29:35;;;;;;;6.90;5.05;;;31.60;82.50;;;;;;4891148;29;20595;-65
2023/07/10 10:32:23;;;;;;;8.43;4.70;;;31.70;83.00;;;;;;4913792;29;20132;-65
2023/07/10 10:35:03;;;;;;;9.32;4.75;;;31.60;83.00;;;;;;4911319;29;20066;-65
2023/07/10 10:38:13;;;;;;;9.15;5.43;;;31.60;83.00;;;;;;4915220;29;20040;-65
2023/07/10 10:41:13;;;;;;;15.45;5.72;;;31.60;82.90;;;;;;4898468;29;20123;-66
2023/07/10 10:43:48;;;;;;;8.18;5.50;;;31.30;83.20;;;;;;4914426;29;20055;-66
2023/07/10 10:46:57;;;;;;;10.43;5.70;;;31.10;83.50;;;;;;4907723;29;20477;-66
2023/07/10 10:49:38;;;;;;;7.53;5.30;;;30.90;83.80;;;;;;4914255;29;20040;-66
2023/07/10 10:52:53;;;;;;;8.15;5.13;;;30.90;84.00;;;;;;4915031;29;20036;-66
2023/07/10 10:55:40;;;;;;;10.25;5.72;;;30.90;83.90;;;;;;4909150;29;20036;-66
2023/07/10 10:58:25;;;;;;;7.68;5.07;;;30.90;83.40;;;;;;4913575;29;20401;-66
2023/07/10 11:01:26;;;;;;;9.45;5.38;;;30.90;83.80;;;;;;4914593;29;20047;-66
2023/07/10 11:03:57;;;;;;;6.82;5.43;;;31.20;83.50;;;;;;4913441;29;20621;-65
2023/07/10 11:06:49;;;;;;;7.88;5.38;;;31.50;83.30;;;;;;4911568;29;20195;-65
2023/07/10 11:09:29;;;;;;;9.02;5.55;;;31.70;82.50;;;;;;4913505;29;20039;-66
2023/07/10 11:11:56;;;;;;;7.07;5.38;;;31.70;82.50;;;;;;4914539;29;20036;-66
2023/07/10 11:14:22;;;;;;;11.13;5.43;;;31.80;82.20;;;;;;4914462;29;20040;-66
2023/07/10 11:16:51;;;;;;;10.73;5.10;;;32.20;81.20;;;;;;4912785;29;20047;-65
2023/07/10 11:19:23;;;;;;;9.68;5.63;;;32.40;81.50;;;;;;4906655;29;20043;-66
2023/07/10 11:21:53;;;;;;;7.35;5.45;;;32.50;80.60;;;;;;4915880;29;20043;-66
2023/07/10 11:24:25;;;;;;;9.00;5.55;;;32.60;80.10;;;;;;4914976;29;20436;-65
2023/07/10 11:26:51;;;;;;;9.45;5.78;;;32.60;79.90;;;;;;4913821;29;20054;-65
2023/07/10 11:29:29;;;;;;;8.07;5.22;;;32.40;79.70;;;;;;4914113;29;20059;-65
2023/07/10 11:32:00;;;;;;;6.70;4.80;;;32.10;79.90;;;;;;4913823;29;20059;-66
2023/07/10 11:34:25;;;;;;;7.70;5.18;;;32.10;80.20;;;;;;4913829;29;20059;-65
2023/07/10 11:36:51;;;;;;;8.00;5.07;;;32.20;79.90;;;;;;4913711;29;20474;-65
2023/07/10 11:39:33;;;;;;;7.90;5.57;;;32.20;79.40;;;;;;4913927;29;20040;-65
2023/07/10 11:42:02;;;;;;;7.72;4.82;;;32.30;79.10;;;;;;4914579;29;20071;-66
2023/07/10 11:44:27;;;;;;;9.60;5.32;;;32.40;78.90;;;;;;4914247;29;20028;-65
2023/07/10 11:47:05;;;;;;;9.07;5.18;;;32.50;77.70;;;;;;4913815;29;20612;-65
2023/07/10 11:49:55;;;;;;;7.15;5.63;;;32.50;77.40;;;;;;4913600;29;20033;-66
2023/07/10 11:52:21;;;;;;;14.07;5.35;;;32.40;77.60;;;;;;4914513;29;20434;-65
2023/07/10 11:54:49;;;;;;;6.25;4.85;;;32.60;77.60;;;;;;4912980;29;20159;-65
2023/07/10 11:57:22;;;;;;;9.68;5.07;;;32.80;76.70;;;;;;4914129;29;20044;-66
2023/07/10 11:59:49;;;;;;;9.63;5.75;;;33.20;75.10;;;;;;4913754;29;20031;-65
2023/07/10 12:02:37;;;;;;;5.95;5.22;;;33.40;74.60;;;;;;4915426;29;20032;-66
2023/07/10 12:05:32;;;;;;;7.25;5.18;;;33.60;73.70;;;;;;4908309;29;20070;-65
2023/07/10 12:08:16;;;;;;;6.70;4.53;;;33.70;72.90;;;;;;4913998;29;20080;-66
2023/07/10 12:10:48;;;;;;;7.38;4.95;;;33.70;72.00;;;;;;4910129;29;20383;-65
2023/07/10 12:13:27;;;;;;;6.35;4.80;;;33.80;71.50;;;;;;4915411;29;20032;-70
2023/07/10 12:15:57;;;;;;;5.05;4.35;;;33.90;71.00;;;;;;4905851;29;20024;-66
2023/07/10 12:18:35;;;;;;;8.95;4.97;;;34.10;70.70;;;;;;4914319;29;20036;-66
2023/07/10 12:21:03;;;;;;;5.68;4.72;;;34.10;70.10;;;;;;4914309;29;20031;-66
2023/07/10 12:23:29;;;;;;;6.90;4.78;;;34.00;70.00;;;;;;4913459;29;20164;-66
2023/07/10 12:25:58;;;;;;;5.63;5.00;;;34.10;70.20;;;;;;4920058;29;20115;-65
2023/07/10 12:28:26;;;;;;;7.07;4.82;;;34.40;68.20;;;;;;4914494;29;20036;-66
2023/07/10 12:30:53;;;;;;;8.73;4.72;;;34.70;67.80;;;;;;4912474;29;20028;-65
2023/07/10 12:33:50;;;;;;;9.35;5.18;;;34.80;66.50;;;;;;4912755;29;20080;-66
2023/07/10 12:36:27;;;;;;;8.52;4.95;;;34.70;66.10;;;;;;4914261;29;20028;-65
2023/07/10 12:38:56;;;;;;;6.57;4.82;;;34.60;66.20;;;;;;4912544;29;20036;-65
2023/07/10 12:41:22;;;;;;;8.48;4.30;;;34.70;66.30;;;;;;4912341;29;20033;-67
2023/07/10 12:43:53;;;;;;;4.90;4.40;;;34.80;65.40;;;;;;4912548;29;20036;-66
2023/07/10 12:46:28;;;;;;;5.57;4.13;;;34.70;65.60;;;;;;4913426;29;20374;-66
2023/07/10 12:49:00;;;;;;;7.75;4.90;;;34.50;65.30;;;;;;4912830;29;20032;-65
2023/07/10 12:51:33;;;;;;;6.93;4.55;;;34.70;65.70;;;;;;4908366;29;20035;-66
2023/07/10 12:54:20;;;;;;;8.70;4.88;;;34.60;64.90;;;;;;4912899;29;20047;-66
2023/07/10 12:56:46;;;;;;;9.75;4.55;;;34.50;65.00;;;;;;4912714;29;20564;-66
2023/07/10 12:59:23;;;;;;;5.65;3.95;;;34.60;65.20;;;;;;4906183;29;20028;-66
2023/07/10 13:02:01;;;;;;;5.03;4.50;;;34.80;64.60;;;;;;4916022;29;20389;-67